Time;durP1;ratioP1;P1;durP2;ratioP2;P2;SDS_P1;SDS_P2;PMS_P1;PMS_P2;Temp;Humidity;BMP_temperature;BMP_pressure;BME280_temperature;BME280_humidity;BME280_pressure;Samples;Min_cycle;Max_cycle;Signal;HPM_P1;HPM_P2
2022/05/17 00:00:16;;;;;;;10.35;5.32;;;16.10;99.90;;;;;;5016071;28;20044;-69
2022/05/17 00:02:42;;;;;;;9.73;5.70;;;16.10;99.90;;;;;;4996372;28;20077;-69
2022/05/17 00:05:09;;;;;;;12.27;5.93;;;16.10;99.90;;;;;;4995578;28;20084;-69
2022/05/17 00:07:35;;;;;;;7.15;5.45;;;16.00;99.90;;;;;;4995173;28;20049;-69
2022/05/17 00:10:01;;;;;;;11.15;6.22;;;16.00;99.90;;;;;;4998790;28;20073;-69
2022/05/17 00:12:27;;;;;;;13.50;6.93;;;15.90;99.90;;;;;;5012475;28;20424;-69
2022/05/17 00:14:52;;;;;;;12.20;5.53;;;15.90;99.90;;;;;;5016023;28;20127;-69
2022/05/17 00:17:19;;;;;;;14.40;7.30;;;15.90;99.90;;;;;;5009210;28;20073;-69
2022/05/17 00:19:45;;;;;;;12.60;6.38;;;15.80;99.90;;;;;;5011861;28;20100;-69
2022/05/17 00:22:10;;;;;;;17.08;6.25;;;15.80;99.90;;;;;;5006865;28;20501;-69
2022/05/17 00:24:36;;;;;;;10.10;5.63;;;15.80;99.90;;;;;;5003355;28;20049;-69
2022/05/17 00:27:03;;;;;;;13.23;6.18;;;15.80;99.90;;;;;;5006041;28;20158;-70
2022/05/17 00:29:29;;;;;;;11.63;4.95;;;15.70;99.90;;;;;;5005366;28;20579;-70
2022/05/17 00:31:55;;;;;;;18.95;7.90;;;15.80;99.90;;;;;;5004820;28;20142;-69
2022/05/17 00:34:22;;;;;;;15.95;5.40;;;15.70;99.90;;;;;;5004266;28;20049;-70
2022/05/17 00:36:47;;;;;;;9.20;5.35;;;15.60;99.90;;;;;;5008494;28;20090;-70
2022/05/17 00:39:13;;;;;;;10.23;5.50;;;15.60;99.90;;;;;;5014144;28;20049;-69
2022/05/17 00:41:39;;;;;;;11.18;5.70;;;15.60;99.90;;;;;;5013122;28;20045;-70
2022/05/17 00:47:12;;;;;;;13.30;6.13;;;15.60;99.90;;;;;;5005939;28;20089;-70
2022/05/17 00:49:42;;;;;;;13.90;6.20;;;15.60;99.90;;;;;;5006073;28;20050;-70
2022/05/17 00:52:13;;;;;;;13.43;5.85;;;15.60;99.90;;;;;;5006655;28;20053;-70
2022/05/17 00:54:42;;;;;;;12.23;5.32;;;15.50;99.90;;;;;;5003890;28;20049;-70
2022/05/17 00:57:20;;;;;;;11.25;5.93;;;15.50;99.90;;;;;;5006696;28;20046;-70
2022/05/17 00:59:48;;;;;;;10.50;5.13;;;15.50;99.90;;;;;;5005315;28;20607;-70
2022/05/17 01:02:13;;;;;;;9.23;5.63;;;15.50;99.90;;;;;;5014576;28;20046;-70
2022/05/17 01:04:40;;;;;;;9.23;5.25;;;15.40;99.90;;;;;;5000672;28;20054;-70
2022/05/17 01:07:12;;;;;;;17.60;6.40;;;15.40;99.90;;;;;;5005432;28;20046;-70
2022/05/17 01:09:37;;;;;;;11.55;5.32;;;15.40;99.90;;;;;;5005007;28;20084;-70
2022/05/17 01:12:04;;;;;;;10.27;4.78;;;15.40;99.90;;;;;;5005746;28;21001;-70
2022/05/17 01:17:14;;;;;;;12.48;6.20;;;15.30;99.90;;;;;;5014517;28;20057;-70
2022/05/17 01:19:41;;;;;;;14.95;6.35;;;15.20;99.90;;;;;;5012882;28;20048;-70
2022/05/17 01:22:07;;;;;;;13.88;5.65;;;15.20;99.90;;;;;;5002328;28;20033;-70
2022/05/17 01:24:33;;;;;;;11.38;6.05;;;15.20;99.90;;;;;;5001942;28;20486;-70
2022/05/17 01:27:05;;;;;;;8.57;5.68;;;15.20;99.90;;;;;;5004994;28;20033;-70
2022/05/17 01:29:42;;;;;;;6.82;4.75;;;15.20;99.90;;;;;;5004835;28;20045;-70
2022/05/17 01:32:10;;;;;;;10.02;5.00;;;15.20;99.90;;;;;;5005203;28;20570;-70
2022/05/17 01:34:36;;;;;;;12.90;5.68;;;15.10;99.90;;;;;;5005163;28;20112;-70
2022/05/17 01:37:04;;;;;;;8.02;4.15;;;15.10;99.90;;;;;;5004919;28;20037;-70
2022/05/17 01:39:30;;;;;;;9.35;5.53;;;15.10;99.90;;;;;;5005583;28;20134;-70
2022/05/17 01:41:56;;;;;;;9.70;5.18;;;15.10;99.90;;;;;;5006125;28;20061;-70
2022/05/17 01:44:23;;;;;;;10.20;6.00;;;15.10;99.90;;;;;;5005713;28;20042;-70
2022/05/17 01:46:49;;;;;;;8.93;4.93;;;15.00;99.90;;;;;;5004328;28;20064;-70
2022/05/17 01:49:14;;;;;;;10.43;5.25;;;15.00;99.90;;;;;;5005399;28;20917;-70
2022/05/17 01:51:40;;;;;;;11.25;5.18;;;15.00;99.90;;;;;;5003206;28;20140;-70
2022/05/17 01:54:05;;;;;;;13.95;5.80;;;14.90;99.90;;;;;;5005229;28;20115;-70
2022/05/17 01:56:33;;;;;;;18.75;6.05;;;15.00;99.90;;;;;;5005402;28;20860;-70
2022/05/17 01:58:59;;;;;;;11.77;6.20;;;14.90;99.90;;;;;;5011564;28;20542;-70
2022/05/17 02:01:25;;;;;;;11.10;7.25;;;14.90;99.90;;;;;;5013940;28;20050;-71
2022/05/17 02:03:51;;;;;;;16.50;5.35;;;14.90;99.90;;;;;;5006599;28;20120;-70
2022/05/17 02:06:17;;;;;;;12.77;4.55;;;14.90;99.90;;;;;;5004809;28;20052;-70
2022/05/17 02:08:43;;;;;;;11.52;5.50;;;14.90;99.90;;;;;;5007719;28;20041;-71
2022/05/17 02:11:08;;;;;;;9.50;5.25;;;14.80;99.90;;;;;;5017652;28;20061;-70
2022/05/17 02:13:34;;;;;;;9.07;5.00;;;14.80;99.90;;;;;;5007788;28;20127;-70
2022/05/17 02:16:03;;;;;;;12.65;5.53;;;14.80;99.90;;;;;;5004989;28;20053;-71
2022/05/17 02:18:28;;;;;;;12.48;7.00;;;14.80;99.90;;;;;;5002446;28;20425;-70
2022/05/17 02:20:54;;;;;;;16.33;6.03;;;14.80;99.90;;;;;;5004601;28;20038;-70
2022/05/17 02:23:19;;;;;;;11.20;5.78;;;14.80;99.90;;;;;;5003774;28;20064;-70
2022/05/17 02:25:45;;;;;;;12.13;6.00;;;14.70;99.90;;;;;;5004352;28;20081;-71
2022/05/17 02:28:11;;;;;;;11.05;5.25;;;14.70;99.90;;;;;;5008397;28;20064;-70
2022/05/17 02:30:41;;;;;;;8.68;5.15;;;14.70;99.90;;;;;;5003443;28;20053;-70
2022/05/17 02:33:06;;;;;;;11.63;4.95;;;14.60;99.90;;;;;;5004620;28;20045;-70
2022/05/17 02:35:32;;;;;;;10.65;4.85;;;14.70;99.90;;;;;;5004592;28;20045;-70
2022/05/17 02:37:57;;;;;;;11.60;5.50;;;14.60;99.90;;;;;;5003051;28;20045;-70
2022/05/17 02:40:23;;;;;;;11.50;5.43;;;14.60;99.90;;;;;;5003869;28;20049;-70
2022/05/17 02:42:49;;;;;;;8.82;5.30;;;14.60;99.90;;;;;;5004573;28;20159;-70
2022/05/17 02:45:14;;;;;;;9.05;4.68;;;14.60;99.90;;;;;;5007240;28;20046;-70
2022/05/17 02:47:40;;;;;;;7.90;4.63;;;14.60;99.90;;;;;;5012314;28;20057;-71
2022/05/17 02:50:09;;;;;;;10.07;4.80;;;14.50;99.90;;;;;;5009117;28;20057;-71
2022/05/17 02:52:35;;;;;;;7.72;4.50;;;14.50;99.90;;;;;;5006571;28;20440;-71
2022/05/17 02:55:00;;;;;;;10.73;5.40;;;14.50;99.90;;;;;;5007998;28;20045;-70
2022/05/17 02:57:26;;;;;;;22.38;5.78;;;14.50;99.90;;;;;;5007218;28;20115;-71
2022/05/17 02:59:51;;;;;;;8.60;5.03;;;14.50;99.90;;;;;;5008591;28;20107;-71
2022/05/17 03:02:17;;;;;;;16.52;7.25;;;14.50;99.90;;;;;;5013248;28;20118;-71
2022/05/17 03:04:42;;;;;;;12.55;6.78;;;14.40;99.90;;;;;;5021612;28;20037;-70
2022/05/17 03:07:08;;;;;;;9.70;5.10;;;14.50;99.90;;;;;;5008481;28;20053;-71
2022/05/17 03:09:34;;;;;;;10.68;5.43;;;14.40;99.90;;;;;;5006015;28;20056;-70
2022/05/17 03:12:02;;;;;;;12.65;5.70;;;14.40;99.90;;;;;;5010225;28;20104;-70
2022/05/17 03:14:28;;;;;;;10.52;6.03;;;14.40;99.90;;;;;;5014577;28;20341;-70
2022/05/17 03:16:54;;;;;;;9.88;5.55;;;14.40;99.90;;;;;;5007966;28;20046;-70
2022/05/17 03:19:20;;;;;;;15.40;5.32;;;14.40;99.90;;;;;;5008712;28;20178;-70
2022/05/17 03:21:47;;;;;;;9.02;5.18;;;14.30;99.90;;;;;;5015912;28;20529;-70
2022/05/17 03:24:13;;;;;;;9.23;5.28;;;14.30;99.90;;;;;;5013542;28;20049;-70
2022/05/17 03:26:38;;;;;;;13.10;7.22;;;14.30;99.90;;;;;;5013626;28;20054;-71
2022/05/17 03:29:04;;;;;;;7.70;3.75;;;14.30;99.90;;;;;;5007805;28;20157;-70
2022/05/17 03:31:30;;;;;;;14.90;5.38;;;14.30;99.90;;;;;;5008362;28;20052;-70
2022/05/17 03:33:55;;;;;;;12.50;5.88;;;14.30;99.90;;;;;;5006955;28;20053;-70
2022/05/17 03:36:21;;;;;;;11.15;5.43;;;14.30;99.90;;;;;;5005936;28;20080;-70
2022/05/17 03:38:47;;;;;;;11.27;5.97;;;14.20;99.90;;;;;;5008205;28;20756;-71
2022/05/17 03:41:12;;;;;;;26.30;6.72;;;14.20;99.90;;;;;;5008044;28;20051;-71
2022/05/17 03:43:38;;;;;;;10.60;6.05;;;14.20;99.90;;;;;;5007486;28;20062;-71
2022/05/17 03:46:07;;;;;;;10.05;6.13;;;14.20;99.90;;;;;;5006553;28;20048;-70
2022/05/17 03:48:33;;;;;;;11.68;6.25;;;14.20;99.90;;;;;;5008080;28;20045;-69
2022/05/17 03:50:58;;;;;;;15.73;6.20;;;14.20;99.90;;;;;;5006092;28;20589;-70
2022/05/17 03:53:24;;;;;;;9.05;6.28;;;14.10;99.90;;;;;;5006828;28;20493;-70
2022/05/17 03:55:50;;;;;;;11.10;6.05;;;14.10;99.90;;;;;;5008960;28;20045;-70
2022/05/17 03:58:15;;;;;;;10.35;5.75;;;14.10;99.90;;;;;;5007343;28;20041;-70
2022/05/17 04:00:41;;;;;;;11.25;5.90;;;14.10;99.90;;;;;;5008772;28;20123;-70
2022/05/17 04:03:07;;;;;;;8.95;5.78;;;14.10;99.90;;;;;;5008730;28;20075;-69
2022/05/17 04:05:32;;;;;;;12.20;7.10;;;14.10;99.90;;;;;;5007033;28;20172;-70
2022/05/17 04:07:58;;;;;;;9.50;5.65;;;14.10;99.90;;;;;;5010734;28;20057;-69
2022/05/17 04:10:24;;;;;;;13.30;6.13;;;14.10;99.90;;;;;;5012061;28;20050;-69
2022/05/17 04:12:50;;;;;;;13.77;6.40;;;14.20;99.90;;;;;;5009882;28;20052;-70
2022/05/17 04:15:18;;;;;;;13.82;6.72;;;14.20;99.90;;;;;;5007098;28;20049;-70
2022/05/17 04:17:44;;;;;;;15.10;8.15;;;14.20;99.90;;;;;;5006820;28;20783;-70
2022/05/17 04:20:12;;;;;;;14.75;6.65;;;14.30;99.90;;;;;;5006638;28;20076;-70
2022/05/17 04:22:42;;;;;;;15.02;6.20;;;14.40;99.90;;;;;;5006162;28;20045;-69
2022/05/17 04:25:08;;;;;;;10.93;6.40;;;14.40;99.90;;;;;;5007023;28;20038;-70
2022/05/17 04:27:33;;;;;;;14.60;6.85;;;14.50;99.90;;;;;;5007481;28;20048;-69
2022/05/17 04:29:59;;;;;;;8.05;5.97;;;14.50;99.90;;;;;;5007482;28;20041;-70
2022/05/17 04:32:24;;;;;;;14.73;7.13;;;14.60;99.90;;;;;;5002980;28;20068;-70
2022/05/17 04:34:50;;;;;;;11.70;6.22;;;14.70;99.90;;;;;;5015453;28;20123;-70
2022/05/17 04:37:15;;;;;;;14.48;6.35;;;14.70;99.90;;;;;;5012390;28;20060;-70
2022/05/17 04:39:41;;;;;;;10.98;5.93;;;14.80;99.90;;;;;;5005952;28;20049;-70
2022/05/17 04:42:07;;;;;;;14.25;5.82;;;14.90;99.90;;;;;;5004766;28;20179;-70
2022/05/17 04:44:33;;;;;;;11.40;6.25;;;15.00;99.90;;;;;;5003632;28;20041;-70
2022/05/17 04:46:58;;;;;;;10.73;6.13;;;15.20;99.90;;;;;;5004426;28;20099;-70
2022/05/17 04:49:24;;;;;;;16.92;6.30;;;15.30;99.90;;;;;;5004455;28;20830;-70
2022/05/17 04:51:52;;;;;;;10.98;6.30;;;15.40;99.90;;;;;;5004609;28;20069;-69
2022/05/17 04:54:17;;;;;;;12.63;5.57;;;15.50;99.90;;;;;;5003524;28;20041;-69
2022/05/17 04:56:43;;;;;;;12.05;5.45;;;15.60;99.90;;;;;;5003570;28;20046;-70
2022/05/17 04:59:08;;;;;;;15.32;6.35;;;15.70;99.90;;;;;;5004121;28;20049;-69
2022/05/17 05:01:34;;;;;;;12.95;5.85;;;15.80;99.90;;;;;;5000197;28;20054;-70
2022/05/17 05:04:00;;;;;;;20.27;6.90;;;15.80;99.90;;;;;;5000274;28;20049;-70
2022/05/17 05:06:27;;;;;;;13.80;5.70;;;15.90;99.90;;;;;;5000157;28;20057;-69
2022/05/17 05:08:53;;;;;;;7.60;5.63;;;16.00;99.90;;;;;;5000080;28;20537;-70
2022/05/17 05:11:19;;;;;;;13.95;6.45;;;16.00;99.90;;;;;;5001010;28;20041;-70
2022/05/17 05:13:44;;;;;;;11.70;5.55;;;16.00;99.90;;;;;;5000941;28;20042;-70
2022/05/17 05:16:12;;;;;;;8.25;4.95;;;16.00;99.90;;;;;;5000831;28;20049;-70
2022/05/17 05:18:38;;;;;;;12.70;6.85;;;16.00;99.90;;;;;;5001521;28;20056;-70
2022/05/17 05:21:06;;;;;;;12.90;5.97;;;16.00;99.90;;;;;;5004084;28;20050;-70
2022/05/17 05:23:32;;;;;;;9.05;5.85;;;16.00;99.90;;;;;;5002127;28;20201;-69
2022/05/17 05:25:59;;;;;;;17.23;5.93;;;16.00;99.90;;;;;;5001460;28;20068;-70
2022/05/17 05:28:25;;;;;;;12.90;4.93;;;16.00;99.90;;;;;;4999705;28;20095;-70
2022/05/17 05:30:50;;;;;;;11.15;5.05;;;16.60;99.90;;;;;;5000456;28;20049;-70
2022/05/17 05:33:16;;;;;;;9.82;5.40;;;15.90;99.90;;;;;;5002652;28;20064;-70
2022/05/17 05:35:41;;;;;;;12.50;4.75;;;16.00;99.90;;;;;;5000532;28;20087;-70
2022/05/17 05:38:08;;;;;;;8.45;4.68;;;16.00;99.90;;;;;;4999291;28;20115;-70
2022/05/17 05:40:33;;;;;;;15.52;5.10;;;16.00;99.90;;;;;;5001000;28;20505;-69
2022/05/17 05:42:59;;;;;;;14.73;5.90;;;16.00;99.90;;;;;;4999009;28;20176;-69
2022/05/17 05:45:24;;;;;;;7.65;4.22;;;16.10;99.90;;;;;;4997849;28;20122;-70
2022/05/17 05:47:50;;;;;;;14.93;4.88;;;16.10;99.90;;;;;;4998692;28;20042;-70
2022/05/17 05:50:16;;;;;;;11.32;5.20;;;16.20;99.90;;;;;;4997803;28;20160;-70
2022/05/17 05:52:41;;;;;;;7.20;4.35;;;16.20;99.90;;;;;;4997502;28;20042;-70
2022/05/17 05:55:17;;;;;;;12.73;5.55;;;16.40;99.90;;;;;;4996253;28;20042;-70
2022/05/17 05:57:43;;;;;;;13.52;5.07;;;16.40;99.90;;;;;;4996229;28;20117;-70
2022/05/17 06:00:09;;;;;;;13.85;6.00;;;16.60;99.90;;;;;;4998402;28;20266;-70
2022/05/17 06:02:35;;;;;;;16.63;6.32;;;16.70;99.90;;;;;;4999044;28;20049;-70
2022/05/17 06:05:00;;;;;;;8.65;5.00;;;16.80;99.90;;;;;;4999684;28;20735;-70
2022/05/17 06:07:26;;;;;;;9.27;5.20;;;17.00;99.90;;;;;;5003961;28;20122;-71
2022/05/17 06:09:51;;;;;;;7.25;4.38;;;17.10;99.90;;;;;;5009569;28;20067;-70
2022/05/17 06:12:17;;;;;;;10.75;4.47;;;17.20;99.90;;;;;;4999928;28;20137;-70
2022/05/17 06:14:43;;;;;;;10.32;5.18;;;17.30;99.90;;;;;;5003823;28;20057;-70
2022/05/17 06:17:08;;;;;;;10.70;5.45;;;17.40;99.90;;;;;;5000486;28;20046;-70
2022/05/17 06:19:34;;;;;;;7.53;4.47;;;17.50;99.90;;;;;;5001984;28;20049;-70
2022/05/17 06:22:00;;;;;;;12.65;4.72;;;17.60;99.90;;;;;;5000389;28;20060;-70
2022/05/17 06:24:27;;;;;;;9.48;4.75;;;17.80;99.90;;;;;;4998489;28;20054;-70
2022/05/17 06:26:52;;;;;;;8.57;5.00;;;17.90;99.90;;;;;;4995961;28;20045;-70
2022/05/17 06:29:18;;;;;;;9.77;5.13;;;18.10;99.90;;;;;;5000873;28;20123;-70
2022/05/17 06:31:43;;;;;;;7.47;4.43;;;18.60;99.90;;;;;;5001403;28;20058;-70
2022/05/17 06:34:09;;;;;;;7.22;4.65;;;19.40;99.90;;;;;;5001364;28;20091;-69
2022/05/17 06:36:35;;;;;;;8.90;5.10;;;20.10;99.90;;;;;;5004740;28;20052;-70
2022/05/17 06:39:00;;;;;;;8.07;4.85;;;20.70;99.90;;;;;;4999498;28;20041;-70
2022/05/17 06:41:26;;;;;;;11.15;4.55;;;21.30;99.90;;;;;;4998876;28;20053;-70
2022/05/17 06:43:52;;;;;;;6.00;4.03;;;21.60;99.90;;;;;;4996148;28;20049;-70
2022/05/17 06:46:17;;;;;;;7.82;4.00;;;22.00;99.90;;;;;;4997461;28;20046;-70
2022/05/17 06:48:43;;;;;;;9.80;5.47;;;22.30;99.90;;;;;;4996362;28;20041;-71
2022/05/17 06:51:09;;;;;;;5.10;3.42;;;22.90;99.90;;;;;;4998959;28;20057;-71
2022/05/17 06:53:35;;;;;;;10.80;4.28;;;23.10;99.90;;;;;;4997947;28;20044;-70
2022/05/17 06:56:05;;;;;;;6.88;3.72;;;23.00;99.90;;;;;;4997406;28;20054;-70
2022/05/17 06:58:31;;;;;;;10.20;4.72;;;23.10;99.90;;;;;;4997049;28;20049;-70
2022/05/17 07:00:57;;;;;;;9.85;5.10;;;23.10;99.90;;;;;;4997794;28;20052;-68
2022/05/17 07:03:23;;;;;;;9.68;4.00;;;23.00;99.90;;;;;;5004233;28;20566;-67
2022/05/17 07:05:49;;;;;;;8.52;3.72;;;23.30;99.90;;;;;;5003837;28;20134;-70
2022/05/17 07:08:15;;;;;;;6.93;4.10;;;24.00;99.90;;;;;;5002278;28;20080;-70
2022/05/17 07:13:25;;;;;;;7.18;4.57;;;24.40;98.90;;;;;;5005658;28;20077;-70
2022/05/17 07:15:51;;;;;;;11.73;3.83;;;24.40;97.10;;;;;;5000401;28;20176;-70
2022/05/17 07:18:20;;;;;;;7.10;4.03;;;24.40;97.50;;;;;;5005863;28;20042;-70
2022/05/17 07:20:47;;;;;;;6.63;3.85;;;24.70;97.20;;;;;;5009014;28;20064;-70
2022/05/17 07:23:13;;;;;;;8.73;4.35;;;24.80;95.80;;;;;;5005560;28;20050;-69
2022/05/17 07:25:40;;;;;;;8.05;3.50;;;24.90;96.50;;;;;;5001820;28;20042;-70
2022/05/17 07:28:07;;;;;;;7.15;4.63;;;25.20;96.40;;;;;;4999319;28;20172;-70
2022/05/17 07:30:33;;;;;;;12.85;4.43;;;25.60;95.90;;;;;;5000470;28;20049;-70
2022/05/17 07:32:58;;;;;;;8.65;3.97;;;26.20;95.80;;;;;;5000897;28;20052;-70
2022/05/17 07:35:24;;;;;;;15.13;3.80;;;26.20;94.60;;;;;;5007925;28;20120;-70
2022/05/17 07:37:50;;;;;;;7.32;3.90;;;26.50;94.20;;;;;;5011970;28;20881;-70
2022/05/17 07:40:16;;;;;;;8.82;3.85;;;26.30;93.70;;;;;;5003828;28;20052;-70
2022/05/17 07:42:42;;;;;;;8.93;4.00;;;26.20;93.80;;;;;;5005058;28;20053;-70
2022/05/17 07:45:10;;;;;;;7.85;4.43;;;26.80;93.70;;;;;;5005522;28;20045;-70
2022/05/17 07:47:36;;;;;;;8.73;4.25;;;27.10;92.50;;;;;;5004856;28;20069;-69
2022/05/17 07:50:03;;;;;;;8.05;3.85;;;27.00;92.80;;;;;;5004924;28;20152;-69
2022/05/17 07:52:28;;;;;;;8.30;4.55;;;27.50;91.70;;;;;;5003015;28;20507;-69
2022/05/17 07:54:54;;;;;;;5.90;3.90;;;27.70;91.20;;;;;;5005219;28;20053;-70
2022/05/17 07:57:19;;;;;;;7.38;3.80;;;27.90;91.30;;;;;;5007173;28;20049;-70
2022/05/17 07:59:45;;;;;;;8.18;3.45;;;28.20;90.80;;;;;;5007751;28;20056;-69
2022/05/17 08:02:11;;;;;;;11.52;4.38;;;28.80;90.50;;;;;;5005676;28;20195;-69
2022/05/17 08:04:37;;;;;;;6.00;3.20;;;29.30;90.20;;;;;;5003481;28;20050;-69
2022/05/17 08:07:03;;;;;;;13.07;3.90;;;28.80;88.80;;;;;;5005140;28;20080;-69
2022/05/17 08:09:28;;;;;;;9.98;4.10;;;28.90;88.30;;;;;;5004443;28;20057;-69
2022/05/17 08:11:54;;;;;;;7.60;3.53;;;28.80;87.00;;;;;;5004632;28;20123;-70
2022/05/17 08:14:21;;;;;;;6.75;2.75;;;28.90;86.80;;;;;;5004214;28;20041;-70
2022/05/17 08:16:47;;;;;;;6.95;3.20;;;29.30;86.50;;;;;;5005180;28;20045;-69
2022/05/17 08:19:13;;;;;;;7.07;3.17;;;28.80;85.70;;;;;;5004322;28;20815;-70
2022/05/17 08:21:40;;;;;;;10.60;3.55;;;28.80;85.20;;;;;;5003545;28;20483;-70
2022/05/17 08:24:06;;;;;;;11.20;4.47;;;29.00;84.60;;;;;;5004822;28;20048;-70
2022/05/17 08:29:16;;;;;;;7.50;3.30;;;28.70;84.60;;;;;;5008584;28;20053;-69
2022/05/17 08:33:14;;;;;;;5.13;2.88;;;29.10;84.70;;;;;;5004399;28;20458;-69
2022/05/17 08:34:28;;;;;;;5.90;2.83;;;29.20;83.50;;;;;;5004623;28;20045;-70
2022/05/17 08:36:54;;;;;;;6.20;2.58;;;29.20;82.70;;;;;;5004876;28;20064;-69
2022/05/17 08:39:19;;;;;;;6.65;3.05;;;28.80;80.90;;;;;;5004216;28;20095;-69
2022/05/17 08:41:51;;;;;;;4.32;2.75;;;28.60;81.30;;;;;;5008532;28;20072;-69
2022/05/17 08:44:23;;;;;;;10.02;3.88;;;28.70;79.50;;;;;;5005245;28;20037;-70
2022/05/17 08:47:11;;;;;;;;;;;28.40;79.50;;;;;;5005311;28;20049;-69
2022/05/17 08:49:53;;;;;;;6.47;2.55;;;27.70;77.30;;;;;;5003418;28;20989;-69
2022/05/17 08:52:22;;;;;;;5.43;2.58;;;27.60;80.40;;;;;;5002263;28;20046;-69
2022/05/17 08:55:21;;;;;;;7.95;3.25;;;28.00;80.80;;;;;;5004333;28;20033;-69
2022/05/17 08:57:57;;;;;;;6.95;3.88;;;28.40;77.20;;;;;;5008186;28;20045;-68
2022/05/17 09:00:22;;;;;;;4.22;2.42;;;28.10;77.10;;;;;;5013086;28;20073;-69
2022/05/17 09:02:59;;;;;;;5.32;2.88;;;27.90;78.90;;;;;;5008343;28;20137;-69
2022/05/17 09:05:35;;;;;;;7.07;2.38;;;28.30;77.70;;;;;;5001411;28;20068;-69
2022/05/17 09:08:31;;;;;;;6.15;2.60;;;28.50;76.90;;;;;;5004214;28;20045;-70
2022/05/17 09:11:10;;;;;;;5.25;3.00;;;29.20;76.10;;;;;;5002571;28;20072;-71
2022/05/17 09:14:15;;;;;;;6.80;2.78;;;28.20;75.00;;;;;;5001121;28;20057;-69
2022/05/17 09:16:47;;;;;;;5.63;2.10;;;28.30;75.30;;;;;;5001445;28;20057;-69
2022/05/17 09:19:15;;;;;;;5.50;2.35;;;28.20;78.30;;;;;;5001403;28;22092;-69
2022/05/17 09:21:43;;;;;;;7.40;3.03;;;28.40;77.60;;;;;;5001543;28;20048;-68
2022/05/17 09:24:12;;;;;;;3.35;2.50;;;29.10;77.50;;;;;;5000607;28;20940;-69
2022/05/17 09:26:47;;;;;;;4.80;2.63;;;29.70;76.90;;;;;;5008922;28;20050;-70
2022/05/17 09:29:22;;;;;;;5.20;2.67;;;30.00;75.90;;;;;;5001187;28;20034;-69
2022/05/17 09:32:03;;;;;;;6.03;2.80;;;30.20;74.00;;;;;;5001185;28;20041;-70
2022/05/17 09:34:38;;;;;;;6.00;2.35;;;30.20;72.30;;;;;;5004583;28;20044;-68
2022/05/17 09:37:09;;;;;;;5.40;2.58;;;29.70;74.20;;;;;;5013189;28;20056;-68
2022/05/17 09:39:35;;;;;;;5.63;2.50;;;29.20;73.40;;;;;;5002125;28;20041;-69
2022/05/17 09:42:04;;;;;;;11.48;2.83;;;29.60;74.30;;;;;;5001682;28;20292;-69
2022/05/17 09:44:33;;;;;;;6.85;2.72;;;29.70;74.30;;;;;;5001884;28;20038;-68
2022/05/17 09:47:03;;;;;;;6.75;2.75;;;30.00;73.10;;;;;;5001705;28;20926;-68
2022/05/17 09:52:45;;;;;;;4.45;2.42;;;29.50;68.40;;;;;;5007228;28;20053;-68
2022/05/17 09:55:37;;;;;;;4.00;1.73;;;29.40;70.10;;;;;;5001902;28;20122;-68
2022/05/17 09:58:09;;;;;;;7.60;2.33;;;29.10;69.10;;;;;;5001218;28;20061;-68
2022/05/17 10:00:45;;;;;;;5.40;2.50;;;28.80;70.80;;;;;;5012440;28;20480;-68
2022/05/17 10:03:32;;;;;;;7.30;3.05;;;28.80;71.50;;;;;;5010840;28;20053;-68
2022/05/17 10:06:00;;;;;;;8.80;2.60;;;29.10;71.50;;;;;;5003494;28;20133;-68
2022/05/17 10:08:34;;;;;;;7.95;1.92;;;29.20;72.30;;;;;;5003321;28;20521;-68
2022/05/17 10:11:03;;;;;;;6.35;2.35;;;29.00;69.50;;;;;;5005450;28;20076;-68
2022/05/17 10:13:41;;;;;;;4.63;1.98;;;28.80;70.00;;;;;;5006472;28;20210;-68
2022/05/17 10:16:23;;;;;;;4.93;2.28;;;29.00;69.20;;;;;;5015084;28;20053;-68
2022/05/17 10:18:56;;;;;;;3.97;2.20;;;29.30;68.60;;;;;;5001683;28;20249;-67
2022/05/17 10:21:26;;;;;;;3.40;2.22;;;28.70;68.00;;;;;;5005145;28;20048;-67
2022/05/17 10:24:13;;;;;;;5.82;2.10;;;28.70;70.40;;;;;;5004864;28;20050;-68
2022/05/17 10:26:43;;;;;;;3.67;1.65;;;29.10;69.30;;;;;;5013080;28;20049;-67
2022/05/17 10:29:35;;;;;;;7.05;2.22;;;29.40;69.00;;;;;;5011794;28;20038;-67
2022/05/17 10:32:19;;;;;;;5.25;1.80;;;29.70;64.70;;;;;;5002048;28;20054;-68
2022/05/17 10:34:57;;;;;;;3.58;2.00;;;29.70;65.70;;;;;;5009067;28;20050;-68
2022/05/17 10:37:41;;;;;;;4.43;1.60;;;29.40;66.40;;;;;;5003813;28;20829;-68
2022/05/17 10:40:12;;;;;;;5.53;2.15;;;29.00;65.40;;;;;;5002572;28;21231;-68
2022/05/17 10:42:38;;;;;;;3.72;1.60;;;29.10;65.50;;;;;;5002485;28;20115;-68
2022/05/17 10:45:06;;;;;;;4.47;1.60;;;29.20;66.90;;;;;;5001884;28;20072;-68
2022/05/17 10:47:33;;;;;;;3.95;2.15;;;29.20;66.20;;;;;;5004982;28;20073;-67
2022/05/17 10:50:02;;;;;;;9.50;3.10;;;28.90;66.90;;;;;;5005536;28;20405;-68
2022/05/17 10:53:04;;;;;;;5.32;1.90;;;28.70;67.20;;;;;;5005048;28;20675;-67
2022/05/17 10:55:50;;;;;;;6.45;2.10;;;28.30;66.00;;;;;;4984679;28;20131;-68
2022/05/17 10:58:36;;;;;;;6.07;2.28;;;27.70;65.70;;;;;;5013616;28;20776;-68
2022/05/17 11:01:14;;;;;;;5.57;1.98;;;27.50;66.60;;;;;;5004480;28;20097;-68
2022/05/17 11:04:01;;;;;;;4.68;2.00;;;27.50;65.50;;;;;;5008035;28;20068;-68
2022/05/17 11:06:32;;;;;;;4.13;2.25;;;27.80;66.30;;;;;;5016658;28;20084;-68
2022/05/17 11:09:02;;;;;;;6.07;2.00;;;28.00;66.80;;;;;;5005586;28;20421;-68
2022/05/17 11:11:35;;;;;;;3.60;1.95;;;28.40;67.00;;;;;;5002178;28;20073;-68
2022/05/17 11:14:17;;;;;;;5.75;1.88;;;28.00;65.00;;;;;;5004539;28;20049;-69
2022/05/17 11:16:57;;;;;;;5.85;1.77;;;28.20;67.60;;;;;;5008563;28;20690;-69
2022/05/17 11:19:32;;;;;;;5.55;2.38;;;28.00;66.10;;;;;;5005754;28;20872;-68
2022/05/17 11:22:20;;;;;;;5.95;1.80;;;28.10;64.30;;;;;;5004078;28;20045;-68
2022/05/17 11:25:19;;;;;;;8.75;2.30;;;28.30;64.30;;;;;;5013399;28;20045;-68
2022/05/17 11:28:39;;;;;;;4.40;2.22;;;28.50;63.20;;;;;;5004306;28;20618;-69
2022/05/17 11:31:17;;;;;;;4.20;1.73;;;28.60;62.80;;;;;;4989040;28;20052;-68
2022/05/17 11:33:43;;;;;;;3.60;1.98;;;28.50;63.30;;;;;;4987924;28;20046;-65
2022/05/17 11:36:09;;;;;;;5.68;1.88;;;28.60;63.90;;;;;;4994537;28;20175;-65
2022/05/17 11:38:37;;;;;;;1.95;1.60;;;28.50;63.90;;;;;;5010528;28;20202;-67
2022/05/17 11:41:07;;;;;;;3.88;1.42;;;28.50;63.20;;;;;;5011667;28;20867;-67
2022/05/17 11:44:07;;;;;;;4.40;1.55;;;28.30;62.60;;;;;;5005895;28;20038;-70
2022/05/17 11:46:34;;;;;;;4.35;1.50;;;28.10;63.20;;;;;;4994587;28;20156;-59
2022/05/17 11:49:12;;;;;;;2.28;1.85;;;27.70;61.80;;;;;;5005152;28;20139;-60
2022/05/17 11:51:59;;;;;;;3.70;1.90;;;27.90;64.30;;;;;;5005260;28;20068;-60
2022/05/17 11:54:46;;;;;;;4.95;1.70;;;27.90;62.40;;;;;;5005629;28;20092;-63
2022/05/17 11:57:33;;;;;;;2.85;1.75;;;28.00;63.20;;;;;;5005380;28;20139;-60
2022/05/17 12:00:29;;;;;;;2.13;1.15;;;28.10;63.50;;;;;;5005466;28;20839;-60
2022/05/17 12:02:58;;;;;;;2.83;1.83;;;28.20;62.40;;;;;;5002865;28;20042;-68
2022/05/17 12:05:43;;;;;;;4.07;1.55;;;28.30;62.10;;;;;;5000070;28;20300;-70
2022/05/17 12:08:37;;;;;;;5.60;1.92;;;28.00;62.10;;;;;;5307522;22;20054;-63
2022/05/17 12:11:25;;;;;;;3.72;1.67;;;28.00;61.00;;;;;;4971638;28;20756;-61
2022/05/17 12:14:01;;;;;;;4.63;1.95;;;27.60;62.10;;;;;;4972532;28;20486;-64
2022/05/17 12:16:31;;;;;;;4.10;1.70;;;27.40;61.90;;;;;;4969229;28;20054;-61
2022/05/17 12:19:07;;;;;;;5.97;1.92;;;27.40;62.50;;;;;;4965078;28;20636;-61
2022/05/17 12:22:10;;;;;;;2.55;2.35;;;27.30;62.00;;;;;;4964271;28;20103;-61
2022/05/17 12:24:58;;;;;;;6.47;2.10;;;27.30;61.80;;;;;;4961394;28;20050;-61
2022/05/17 12:27:33;;;;;;;2.80;1.65;;;26.90;60.60;;;;;;4961167;28;20093;-61
2022/05/17 13:15:40;;;;;;;4.15;1.73;;;28.40;59.90;;;;;;5931252;23;20044;-59
2022/05/17 13:18:08;;;;;;;3.40;1.70;;;28.60;61.00;;;;;;4898867;29;20056;-62
2022/05/17 13:20:33;;;;;;;4.47;1.80;;;28.70;60.60;;;;;;4904052;29;20048;-62
2022/05/17 13:22:59;;;;;;;2.92;1.48;;;28.70;61.50;;;;;;4901550;29;20047;-62
2022/05/17 13:25:36;;;;;;;7.05;1.77;;;28.70;60.70;;;;;;4904251;29;20048;-62
2022/05/17 13:28:02;;;;;;;1.33;1.13;;;28.80;59.20;;;;;;4903833;29;20123;-62
2022/05/17 13:30:32;;;;;;;3.53;1.58;;;28.70;59.80;;;;;;4903033;29;20052;-61
2022/05/17 13:32:59;;;;;;;1.77;1.45;;;28.80;61.20;;;;;;4886365;29;20052;-62
2022/05/17 13:35:26;;;;;;;4.68;1.63;;;28.80;60.50;;;;;;4903486;29;20048;-62
2022/05/17 13:38:12;;;;;;;3.13;1.80;;;28.90;60.40;;;;;;4903868;29;20058;-62
2022/05/17 13:40:43;;;;;;;4.47;1.70;;;29.00;60.30;;;;;;4887037;29;20060;-62
2022/05/17 13:43:31;;;;;;;4.68;1.88;;;29.10;60.00;;;;;;4903622;29;20067;-61
